Lake McDonald, Montana
Current Conditions -  °F | °C
As of 12:55 AM on Monday 24 Nov 2014 (Local Time) from KGPI Reporting Station
Overcast Overcast  
Wind Chill: 29°   Ceiling: 4600
Heat Index: 34°   Visibility: 10mi
Dew Point: 31°   Wind: 6mph
Humidity: 89%   Direction: 170°S
Pressure: 30.01"   Gusts: NA
Location:  48.62°N, 113.87°W
Report Text: KGPI 240755Z AUTO 17005KT 10SM BKN046 OVC060 01/M01 A3001 RMK AO2 SLP185 T00111006
Loading
Personal Weather Stations






























Interactive Weather Map New forecast layout! Learn more

10-Day Weather Forecast

Advertisements
Track Severe Weather on mobile